sensor_id;sensor_type;location;lat;lon;timestamp;P1;durP1;ratioP1;P2;durP2;ratioP2
62582;SDS011;48641;51.676;5.808;2023-04-25T00:00:18;7.60;;;3.63;;
62582;SDS011;48641;51.676;5.808;2023-04-25T00:02:43;8.07;;;3.58;;
62582;SDS011;48641;51.676;5.808;2023-04-25T00:05:09;7.95;;;3.40;;
62582;SDS011;48641;51.676;5.808;2023-04-25T00:07:35;7.55;;;3.28;;
62582;SDS011;48641;51.676;5.808;2023-04-25T00:10:01;7.10;;;3.70;;
62582;SDS011;48641;51.676;5.808;2023-04-25T00:12:27;6.78;;;3.15;;
62582;SDS011;48641;51.676;5.808;2023-04-25T00:14:55;9.47;;;3.37;;
62582;SDS011;48641;51.676;5.808;2023-04-25T00:19:51;7.13;;;2.80;;
62582;SDS011;48641;51.676;5.808;2023-04-25T00:22:17;7.45;;;3.30;;
62582;SDS011;48641;51.676;5.808;2023-04-25T00:24:43;7.55;;;3.30;;
62582;SDS011;48641;51.676;5.808;2023-04-25T00:27:09;7.60;;;2.90;;
62582;SDS011;48641;51.676;5.808;2023-04-25T00:29:34;6.53;;;3.22;;
62582;SDS011;48641;51.676;5.808;2023-04-25T00:32:00;6.88;;;2.90;;
62582;SDS011;48641;51.676;5.808;2023-04-25T00:34:26;6.68;;;2.95;;
62582;SDS011;48641;51.676;5.808;2023-04-25T00:36:52;6.95;;;2.90;;
62582;SDS011;48641;51.676;5.808;2023-04-25T00:39:17;7.10;;;3.13;;
62582;SDS011;48641;51.676;5.808;2023-04-25T00:41:43;7.07;;;3.00;;
62582;SDS011;48641;51.676;5.808;2023-04-25T00:44:09;6.97;;;2.90;;
62582;SDS011;48641;51.676;5.808;2023-04-25T00:46:37;6.28;;;2.97;;
62582;SDS011;48641;51.676;5.808;2023-04-25T00:49:03;7.00;;;3.15;;
62582;SDS011;48641;51.676;5.808;2023-04-25T00:51:29;7.15;;;2.83;;
62582;SDS011;48641;51.676;5.808;2023-04-25T00:53:57;8.00;;;3.03;;
62582;SDS011;48641;51.676;5.808;2023-04-25T00:56:24;7.22;;;3.00;;
62582;SDS011;48641;51.676;5.808;2023-04-25T00:58:50;6.68;;;2.80;;
62582;SDS011;48641;51.676;5.808;2023-04-25T01:01:21;6.43;;;2.53;;
62582;SDS011;48641;51.676;5.808;2023-04-25T01:03:47;7.15;;;3.28;;
62582;SDS011;48641;51.676;5.808;2023-04-25T01:06:15;7.43;;;3.05;;
62582;SDS011;48641;51.676;5.808;2023-04-25T01:08:41;6.75;;;2.92;;
62582;SDS011;48641;51.676;5.808;2023-04-25T01:11:07;7.10;;;3.25;;
62582;SDS011;48641;51.676;5.808;2023-04-25T01:13:33;7.88;;;3.10;;
62582;SDS011;48641;51.676;5.808;2023-04-25T01:15:59;6.82;;;3.08;;
62582;SDS011;48641;51.676;5.808;2023-04-25T01:18:25;6.70;;;2.88;;
62582;SDS011;48641;51.676;5.808;2023-04-25T01:20:51;7.00;;;2.83;;
62582;SDS011;48641;51.676;5.808;2023-04-25T01:23:21;8.30;;;3.00;;
62582;SDS011;48641;51.676;5.808;2023-04-25T01:25:48;6.80;;;2.60;;
62582;SDS011;48641;51.676;5.808;2023-04-25T01:28:14;6.75;;;2.95;;
62582;SDS011;48641;51.676;5.808;2023-04-25T01:30:40;6.80;;;2.95;;
62582;SDS011;48641;51.676;5.808;2023-04-25T01:33:07;7.93;;;2.95;;
62582;SDS011;48641;51.676;5.808;2023-04-25T01:35:33;7.03;;;2.80;;
62582;SDS011;48641;51.676;5.808;2023-04-25T01:37:59;5.75;;;3.00;;
62582;SDS011;48641;51.676;5.808;2023-04-25T01:40:26;7.13;;;2.50;;
62582;SDS011;48641;51.676;5.808;2023-04-25T01:42:53;7.60;;;2.90;;
62582;SDS011;48641;51.676;5.808;2023-04-25T01:45:18;6.10;;;2.75;;
62582;SDS011;48641;51.676;5.808;2023-04-25T01:47:44;7.05;;;2.58;;
62582;SDS011;48641;51.676;5.808;2023-04-25T01:50:14;6.07;;;2.88;;
62582;SDS011;48641;51.676;5.808;2023-04-25T01:52:41;6.22;;;3.08;;
62582;SDS011;48641;51.676;5.808;2023-04-25T01:55:06;6.78;;;2.70;;
62582;SDS011;48641;51.676;5.808;2023-04-25T01:57:32;6.80;;;2.83;;
62582;SDS011;48641;51.676;5.808;2023-04-25T01:59:59;6.47;;;2.42;;
62582;SDS011;48641;51.676;5.808;2023-04-25T02:02:26;5.07;;;2.40;;
62582;SDS011;48641;51.676;5.808;2023-04-25T02:04:52;5.78;;;2.53;;
62582;SDS011;48641;51.676;5.808;2023-04-25T02:07:19;6.28;;;2.47;;
62582;SDS011;48641;51.676;5.808;2023-04-25T02:09:44;5.53;;;2.25;;
62582;SDS011;48641;51.676;5.808;2023-04-25T02:12:10;7.85;;;2.92;;
62582;SDS011;48641;51.676;5.808;2023-04-25T02:14:36;6.57;;;2.70;;
62582;SDS011;48641;51.676;5.808;2023-04-25T02:17:01;7.05;;;2.92;;
62582;SDS011;48641;51.676;5.808;2023-04-25T02:19:27;5.90;;;2.55;;
62582;SDS011;48641;51.676;5.808;2023-04-25T02:21:53;6.35;;;2.30;;
62582;SDS011;48641;51.676;5.808;2023-04-25T02:24:19;7.18;;;3.22;;
62582;SDS011;48641;51.676;5.808;2023-04-25T02:26:44;5.82;;;2.60;;
62582;SDS011;48641;51.676;5.808;2023-04-25T02:29:11;5.03;;;2.40;;
62582;SDS011;48641;51.676;5.808;2023-04-25T02:31:37;5.75;;;2.45;;
62582;SDS011;48641;51.676;5.808;2023-04-25T02:34:03;7.25;;;2.63;;
62582;SDS011;48641;51.676;5.808;2023-04-25T02:36:29;6.90;;;2.45;;
62582;SDS011;48641;51.676;5.808;2023-04-25T02:38:57;5.43;;;2.30;;
62582;SDS011;48641;51.676;5.808;2023-04-25T02:41:22;6.30;;;2.42;;
62582;SDS011;48641;51.676;5.808;2023-04-25T02:43:48;6.63;;;2.55;;
62582;SDS011;48641;51.676;5.808;2023-04-25T02:46:14;5.65;;;2.53;;
62582;SDS011;48641;51.676;5.808;2023-04-25T02:48:39;6.40;;;2.55;;
62582;SDS011;48641;51.676;5.808;2023-04-25T02:51:05;5.20;;;2.45;;
62582;SDS011;48641;51.676;5.808;2023-04-25T02:53:30;5.32;;;2.55;;
62582;SDS011;48641;51.676;5.808;2023-04-25T02:55:56;7.45;;;2.58;;
62582;SDS011;48641;51.676;5.808;2023-04-25T02:58:23;6.70;;;2.30;;
62582;SDS011;48641;51.676;5.808;2023-04-25T03:00:49;7.72;;;2.58;;
62582;SDS011;48641;51.676;5.808;2023-04-25T03:03:14;7.40;;;2.60;;
62582;SDS011;48641;51.676;5.808;2023-04-25T03:05:42;6.93;;;2.60;;
62582;SDS011;48641;51.676;5.808;2023-04-25T03:10:37;6.70;;;2.40;;
62582;SDS011;48641;51.676;5.808;2023-04-25T03:13:03;6.38;;;2.47;;
62582;SDS011;48641;51.676;5.808;2023-04-25T03:15:29;6.32;;;2.30;;
62582;SDS011;48641;51.676;5.808;2023-04-25T03:17:54;6.13;;;2.47;;
62582;SDS011;48641;51.676;5.808;2023-04-25T03:20:20;6.45;;;2.50;;
62582;SDS011;48641;51.676;5.808;2023-04-25T03:22:45;6.32;;;2.50;;
62582;SDS011;48641;51.676;5.808;2023-04-25T03:25:11;5.55;;;2.20;;
62582;SDS011;48641;51.676;5.808;2023-04-25T03:27:36;6.80;;;2.67;;
62582;SDS011;48641;51.676;5.808;2023-04-25T03:30:02;5.47;;;2.40;;
62582;SDS011;48641;51.676;5.808;2023-04-25T03:32:28;9.00;;;2.90;;
62582;SDS011;48641;51.676;5.808;2023-04-25T03:34:54;6.22;;;2.25;;
62582;SDS011;48641;51.676;5.808;2023-04-25T03:37:20;6.07;;;2.60;;
62582;SDS011;48641;51.676;5.808;2023-04-25T03:39:46;6.03;;;2.38;;
62582;SDS011;48641;51.676;5.808;2023-04-25T03:42:11;7.05;;;2.58;;
62582;SDS011;48641;51.676;5.808;2023-04-25T03:44:37;6.90;;;2.55;;
62582;SDS011;48641;51.676;5.808;2023-04-25T03:47:02;5.68;;;2.20;;
62582;SDS011;48641;51.676;5.808;2023-04-25T03:49:28;5.68;;;2.17;;
62582;SDS011;48641;51.676;5.808;2023-04-25T03:51:53;6.50;;;2.15;;
62582;SDS011;48641;51.676;5.808;2023-04-25T03:54:19;6.85;;;2.55;;
62582;SDS011;48641;51.676;5.808;2023-04-25T03:56:45;6.40;;;2.38;;
62582;SDS011;48641;51.676;5.808;2023-04-25T03:59:11;6.30;;;2.58;;
62582;SDS011;48641;51.676;5.808;2023-04-25T04:01:36;6.45;;;2.20;;
62582;SDS011;48641;51.676;5.808;2023-04-25T04:04:02;6.22;;;2.45;;
62582;SDS011;48641;51.676;5.808;2023-04-25T04:06:29;5.53;;;2.35;;
62582;SDS011;48641;51.676;5.808;2023-04-25T04:08:54;5.68;;;2.20;;
62582;SDS011;48641;51.676;5.808;2023-04-25T04:11:20;7.43;;;2.47;;
62582;SDS011;48641;51.676;5.808;2023-04-25T04:13:46;5.53;;;2.15;;
62582;SDS011;48641;51.676;5.808;2023-04-25T04:16:11;6.88;;;2.55;;
62582;SDS011;48641;51.676;5.808;2023-04-25T04:18:37;6.43;;;2.38;;
62582;SDS011;48641;51.676;5.808;2023-04-25T04:21:02;6.57;;;2.42;;
62582;SDS011;48641;51.676;5.808;2023-04-25T04:23:28;9.85;;;2.75;;
62582;SDS011;48641;51.676;5.808;2023-04-25T04:25:54;6.80;;;2.30;;
62582;SDS011;48641;51.676;5.808;2023-04-25T04:28:21;5.22;;;1.88;;
62582;SDS011;48641;51.676;5.808;2023-04-25T04:30:46;7.78;;;2.53;;
62582;SDS011;48641;51.676;5.808;2023-04-25T04:33:12;6.13;;;2.47;;
62582;SDS011;48641;51.676;5.808;2023-04-25T04:35:40;6.78;;;2.55;;
62582;SDS011;48641;51.676;5.808;2023-04-25T04:38:06;7.10;;;2.40;;
62582;SDS011;48641;51.676;5.808;2023-04-25T04:40:32;7.13;;;2.40;;
62582;SDS011;48641;51.676;5.808;2023-04-25T04:42:57;7.80;;;2.65;;
62582;SDS011;48641;51.676;5.808;2023-04-25T04:45:23;5.65;;;2.00;;
62582;SDS011;48641;51.676;5.808;2023-04-25T04:47:49;5.93;;;2.20;;
62582;SDS011;48641;51.676;5.808;2023-04-25T04:50:15;6.00;;;2.45;;
62582;SDS011;48641;51.676;5.808;2023-04-25T04:52:41;6.30;;;2.20;;
62582;SDS011;48641;51.676;5.808;2023-04-25T04:55:07;5.97;;;2.35;;
62582;SDS011;48641;51.676;5.808;2023-04-25T04:57:34;5.88;;;2.40;;
62582;SDS011;48641;51.676;5.808;2023-04-25T05:00:00;6.65;;;2.47;;
62582;SDS011;48641;51.676;5.808;2023-04-25T05:02:26;7.13;;;2.40;;
62582;SDS011;48641;51.676;5.808;2023-04-25T05:04:52;6.75;;;2.40;;
62582;SDS011;48641;51.676;5.808;2023-04-25T05:07:18;5.65;;;2.13;;
62582;SDS011;48641;51.676;5.808;2023-04-25T05:09:44;6.97;;;2.38;;
62582;SDS011;48641;51.676;5.808;2023-04-25T05:12:09;8.50;;;2.72;;
62582;SDS011;48641;51.676;5.808;2023-04-25T05:14:35;5.88;;;2.00;;
62582;SDS011;48641;51.676;5.808;2023-04-25T05:17:00;7.22;;;2.55;;
62582;SDS011;48641;51.676;5.808;2023-04-25T05:19:29;6.90;;;2.60;;
62582;SDS011;48641;51.676;5.808;2023-04-25T05:21:55;5.55;;;2.10;;
62582;SDS011;48641;51.676;5.808;2023-04-25T05:24:20;5.55;;;2.20;;
62582;SDS011;48641;51.676;5.808;2023-04-25T05:26:46;5.88;;;2.33;;
62582;SDS011;48641;51.676;5.808;2023-04-25T05:29:11;6.32;;;2.33;;
62582;SDS011;48641;51.676;5.808;2023-04-25T05:31:37;6.07;;;2.15;;
62582;SDS011;48641;51.676;5.808;2023-04-25T05:34:03;5.88;;;2.58;;
62582;SDS011;48641;51.676;5.808;2023-04-25T05:36:28;5.40;;;2.40;;
62582;SDS011;48641;51.676;5.808;2023-04-25T05:38:55;6.35;;;2.25;;
62582;SDS011;48641;51.676;5.808;2023-04-25T05:41:20;6.70;;;2.78;;
62582;SDS011;48641;51.676;5.808;2023-04-25T05:43:46;5.88;;;2.40;;
62582;SDS011;48641;51.676;5.808;2023-04-25T05:46:14;6.13;;;2.42;;
62582;SDS011;48641;51.676;5.808;2023-04-25T05:48:41;6.07;;;2.53;;
62582;SDS011;48641;51.676;5.808;2023-04-25T05:51:08;6.30;;;2.60;;
62582;SDS011;48641;51.676;5.808;2023-04-25T05:53:33;6.90;;;2.65;;
62582;SDS011;48641;51.676;5.808;2023-04-25T05:55:59;6.40;;;2.10;;
62582;SDS011;48641;51.676;5.808;2023-04-25T05:58:25;6.22;;;2.40;;
62582;SDS011;48641;51.676;5.808;2023-04-25T06:00:50;6.72;;;2.40;;
62582;SDS011;48641;51.676;5.808;2023-04-25T06:03:16;6.55;;;2.33;;
62582;SDS011;48641;51.676;5.808;2023-04-25T06:05:42;7.30;;;2.45;;
62582;SDS011;48641;51.676;5.808;2023-04-25T06:08:08;5.97;;;2.10;;
62582;SDS011;48641;51.676;5.808;2023-04-25T06:10:34;6.82;;;1.95;;
62582;SDS011;48641;51.676;5.808;2023-04-25T06:13:00;6.32;;;2.42;;
62582;SDS011;48641;51.676;5.808;2023-04-25T06:15:26;5.00;;;1.77;;
62582;SDS011;48641;51.676;5.808;2023-04-25T06:17:52;6.70;;;2.30;;
62582;SDS011;48641;51.676;5.808;2023-04-25T06:20:17;6.22;;;2.00;;
62582;SDS011;48641;51.676;5.808;2023-04-25T06:22:44;4.97;;;2.10;;
62582;SDS011;48641;51.676;5.808;2023-04-25T06:25:10;4.80;;;2.13;;
62582;SDS011;48641;51.676;5.808;2023-04-25T06:27:35;5.28;;;2.10;;
62582;SDS011;48641;51.676;5.808;2023-04-25T06:30:01;5.93;;;1.98;;
62582;SDS011;48641;51.676;5.808;2023-04-25T06:32:26;5.00;;;1.90;;
62582;SDS011;48641;51.676;5.808;2023-04-25T06:34:54;6.57;;;2.30;;
62582;SDS011;48641;51.676;5.808;2023-04-25T06:37:20;5.57;;;2.25;;
62582;SDS011;48641;51.676;5.808;2023-04-25T06:39:45;6.10;;;2.20;;
62582;SDS011;48641;51.676;5.808;2023-04-25T06:42:11;6.07;;;2.10;;
62582;SDS011;48641;51.676;5.808;2023-04-25T06:44:36;5.15;;;1.90;;
62582;SDS011;48641;51.676;5.808;2023-04-25T06:47:02;5.47;;;1.83;;
62582;SDS011;48641;51.676;5.808;2023-04-25T06:49:28;5.68;;;1.90;;
62582;SDS011;48641;51.676;5.808;2023-04-25T06:51:53;4.60;;;1.65;;
62582;SDS011;48641;51.676;5.808;2023-04-25T06:54:19;4.65;;;1.77;;
62582;SDS011;48641;51.676;5.808;2023-04-25T06:56:45;5.28;;;1.77;;
62582;SDS011;48641;51.676;5.808;2023-04-25T06:59:13;4.90;;;1.80;;
62582;SDS011;48641;51.676;5.808;2023-04-25T07:01:39;5.93;;;2.13;;
62582;SDS011;48641;51.676;5.808;2023-04-25T07:04:05;5.30;;;2.17;;
62582;SDS011;48641;51.676;5.808;2023-04-25T07:06:31;5.65;;;1.85;;
62582;SDS011;48641;51.676;5.808;2023-04-25T07:08:57;4.82;;;1.80;;
62582;SDS011;48641;51.676;5.808;2023-04-25T07:11:22;4.32;;;1.88;;
62582;SDS011;48641;51.676;5.808;2023-04-25T07:13:48;5.28;;;1.85;;
62582;SDS011;48641;51.676;5.808;2023-04-25T07:16:13;5.30;;;1.63;;
62582;SDS011;48641;51.676;5.808;2023-04-25T07:18:39;7.18;;;2.00;;
62582;SDS011;48641;51.676;5.808;2023-04-25T07:21:05;12.73;;;2.15;;
62582;SDS011;48641;51.676;5.808;2023-04-25T07:23:30;6.95;;;2.03;;
62582;SDS011;48641;51.676;5.808;2023-04-25T07:25:56;10.27;;;1.95;;
62582;SDS011;48641;51.676;5.808;2023-04-25T07:28:21;10.27;;;2.13;;
62582;SDS011;48641;51.676;5.808;2023-04-25T07:30:47;11.82;;;2.15;;
62582;SDS011;48641;51.676;5.808;2023-04-25T07:33:13;8.65;;;2.05;;
62582;SDS011;48641;51.676;5.808;2023-04-25T07:35:38;8.63;;;2.10;;
62582;SDS011;48641;51.676;5.808;2023-04-25T07:38:04;11.32;;;2.67;;
62582;SDS011;48641;51.676;5.808;2023-04-25T07:40:31;13.15;;;2.13;;
62582;SDS011;48641;51.676;5.808;2023-04-25T07:42:57;11.32;;;1.92;;
62582;SDS011;48641;51.676;5.808;2023-04-25T07:45:22;8.10;;;1.90;;
62582;SDS011;48641;51.676;5.808;2023-04-25T07:47:49;12.63;;;2.47;;
62582;SDS011;48641;51.676;5.808;2023-04-25T07:50:15;11.00;;;1.88;;
62582;SDS011;48641;51.676;5.808;2023-04-25T07:52:40;8.52;;;1.67;;
62582;SDS011;48641;51.676;5.808;2023-04-25T07:55:06;13.68;;;2.63;;
62582;SDS011;48641;51.676;5.808;2023-04-25T07:57:32;13.25;;;2.70;;
62582;SDS011;48641;51.676;5.808;2023-04-25T07:59:57;11.95;;;2.50;;
62582;SDS011;48641;51.676;5.808;2023-04-25T08:02:23;26.65;;;4.15;;
62582;SDS011;48641;51.676;5.808;2023-04-25T08:04:50;21.00;;;4.13;;
62582;SDS011;48641;51.676;5.808;2023-04-25T08:07:16;11.60;;;3.13;;
62582;SDS011;48641;51.676;5.808;2023-04-25T08:09:41;13.38;;;2.65;;
62582;SDS011;48641;51.676;5.808;2023-04-25T08:12:07;19.63;;;2.90;;
62582;SDS011;48641;51.676;5.808;2023-04-25T08:14:33;11.82;;;2.50;;
62582;SDS011;48641;51.676;5.808;2023-04-25T08:17:01;13.95;;;1.80;;
62582;SDS011;48641;51.676;5.808;2023-04-25T08:19:28;37.42;;;4.38;;
62582;SDS011;48641;51.676;5.808;2023-04-25T08:21:55;32.45;;;4.70;;
62582;SDS011;48641;51.676;5.808;2023-04-25T08:24:21;43.63;;;4.85;;
62582;SDS011;48641;51.676;5.808;2023-04-25T08:26:47;40.60;;;4.90;;
62582;SDS011;48641;51.676;5.808;2023-04-25T08:29:13;25.45;;;4.65;;
62582;SDS011;48641;51.676;5.808;2023-04-25T08:31:39;36.72;;;4.80;;
62582;SDS011;48641;51.676;5.808;2023-04-25T08:34:05;30.70;;;4.20;;
62582;SDS011;48641;51.676;5.808;2023-04-25T08:36:30;36.15;;;4.20;;
62582;SDS011;48641;51.676;5.808;2023-04-25T08:38:56;30.50;;;4.13;;
62582;SDS011;48641;51.676;5.808;2023-04-25T08:41:23;28.77;;;4.22;;
62582;SDS011;48641;51.676;5.808;2023-04-25T08:43:49;28.40;;;3.45;;
62582;SDS011;48641;51.676;5.808;2023-04-25T08:46:17;29.98;;;4.47;;
62582;SDS011;48641;51.676;5.808;2023-04-25T08:48:44;24.50;;;3.97;;
62582;SDS011;48641;51.676;5.808;2023-04-25T08:51:10;28.50;;;3.28;;
62582;SDS011;48641;51.676;5.808;2023-04-25T08:53:51;23.58;;;3.88;;
62582;SDS011;48641;51.676;5.808;2023-04-25T08:56:17;23.88;;;3.67;;
62582;SDS011;48641;51.676;5.808;2023-04-25T08:58:45;17.20;;;3.67;;
62582;SDS011;48641;51.676;5.808;2023-04-25T09:01:13;24.63;;;4.30;;
62582;SDS011;48641;51.676;5.808;2023-04-25T09:03:39;21.40;;;2.88;;
62582;SDS011;48641;51.676;5.808;2023-04-25T09:06:09;16.83;;;2.50;;
62582;SDS011;48641;51.676;5.808;2023-04-25T09:08:36;18.58;;;2.95;;
62582;SDS011;48641;51.676;5.808;2023-04-25T09:11:02;11.90;;;2.05;;
62582;SDS011;48641;51.676;5.808;2023-04-25T09:13:29;23.15;;;3.28;;
62582;SDS011;48641;51.676;5.808;2023-04-25T09:15:55;17.60;;;2.97;;
62582;SDS011;48641;51.676;5.808;2023-04-25T09:18:25;16.75;;;2.80;;
62582;SDS011;48641;51.676;5.808;2023-04-25T09:20:56;14.30;;;2.60;;
62582;SDS011;48641;51.676;5.808;2023-04-25T09:23:30;14.63;;;2.33;;
62582;SDS011;48641;51.676;5.808;2023-04-25T09:26:03;26.95;;;3.15;;
62582;SDS011;48641;51.676;5.808;2023-04-25T09:28:31;17.17;;;2.65;;
62582;SDS011;48641;51.676;5.808;2023-04-25T09:30:57;15.38;;;2.13;;
62582;SDS011;48641;51.676;5.808;2023-04-25T09:33:30;12.07;;;1.60;;
62582;SDS011;48641;51.676;5.808;2023-04-25T09:36:04;19.35;;;4.07;;
62582;SDS011;48641;51.676;5.808;2023-04-25T09:38:32;19.30;;;2.63;;
62582;SDS011;48641;51.676;5.808;2023-04-25T09:41:05;17.63;;;2.25;;
62582;SDS011;48641;51.676;5.808;2023-04-25T09:43:30;26.90;;;4.75;;
62582;SDS011;48641;51.676;5.808;2023-04-25T09:45:56;90.18;;;11.13;;
62582;SDS011;48641;51.676;5.808;2023-04-25T09:48:26;117.40;;;14.13;;
62582;SDS011;48641;51.676;5.808;2023-04-25T09:51:08;135.40;;;16.38;;
62582;SDS011;48641;51.676;5.808;2023-04-25T09:53:42;116.90;;;14.75;;
62582;SDS011;48641;51.676;5.808;2023-04-25T09:56:09;104.45;;;12.35;;
62582;SDS011;48641;51.676;5.808;2023-04-25T09:58:37;99.03;;;13.05;;
62582;SDS011;48641;51.676;5.808;2023-04-25T10:01:05;96.68;;;12.10;;
62582;SDS011;48641;51.676;5.808;2023-04-25T10:03:35;79.40;;;11.13;;
62582;SDS011;48641;51.676;5.808;2023-04-25T10:06:04;71.03;;;10.25;;
62582;SDS011;48641;51.676;5.808;2023-04-25T10:08:33;38.50;;;6.10;;
62582;SDS011;48641;51.676;5.808;2023-04-25T10:11:01;51.50;;;7.30;;
62582;SDS011;48641;51.676;5.808;2023-04-25T10:13:29;53.60;;;7.50;;
62582;SDS011;48641;51.676;5.808;2023-04-25T10:15:57;44.60;;;6.30;;
62582;SDS011;48641;51.676;5.808;2023-04-25T10:18:24;45.42;;;7.30;;
62582;SDS011;48641;51.676;5.808;2023-04-25T10:20:51;40.38;;;6.05;;
62582;SDS011;48641;51.676;5.808;2023-04-25T10:23:18;37.97;;;6.82;;
62582;SDS011;48641;51.676;5.808;2023-04-25T10:25:44;36.20;;;6.00;;
62582;SDS011;48641;51.676;5.808;2023-04-25T10:28:10;30.25;;;3.78;;
62582;SDS011;48641;51.676;5.808;2023-04-25T10:30:36;19.67;;;4.30;;
62582;SDS011;48641;51.676;5.808;2023-04-25T10:33:02;25.63;;;4.50;;
62582;SDS011;48641;51.676;5.808;2023-04-25T10:35:43;28.38;;;3.80;;
62582;SDS011;48641;51.676;5.808;2023-04-25T10:38:10;24.10;;;3.67;;
62582;SDS011;48641;51.676;5.808;2023-04-25T10:40:38;22.53;;;3.33;;
62582;SDS011;48641;51.676;5.808;2023-04-25T10:46:24;26.02;;;4.28;;
62582;SDS011;48641;51.676;5.808;2023-04-25T10:48:55;24.67;;;3.90;;
62582;SDS011;48641;51.676;5.808;2023-04-25T10:51:23;21.13;;;4.10;;
62582;SDS011;48641;51.676;5.808;2023-04-25T10:56:20;23.80;;;3.27;;
62582;SDS011;48641;51.676;5.808;2023-04-25T10:58:47;21.65;;;4.00;;
62582;SDS011;48641;51.676;5.808;2023-04-25T11:01:13;20.15;;;3.72;;
62582;SDS011;48641;51.676;5.808;2023-04-25T11:03:40;17.70;;;3.50;;
62582;SDS011;48641;51.676;5.808;2023-04-25T11:06:51;25.80;;;3.20;;
62582;SDS011;48641;51.676;5.808;2023-04-25T11:09:10;16.75;;;3.15;;
62582;SDS011;48641;51.676;5.808;2023-04-25T11:11:40;15.68;;;2.85;;
62582;SDS011;48641;51.676;5.808;2023-04-25T11:14:06;17.05;;;3.13;;
62582;SDS011;48641;51.676;5.808;2023-04-25T11:16:32;16.83;;;2.65;;
62582;SDS011;48641;51.676;5.808;2023-04-25T11:18:58;13.10;;;2.53;;
62582;SDS011;48641;51.676;5.808;2023-04-25T11:21:25;17.33;;;2.78;;
62582;SDS011;48641;51.676;5.808;2023-04-25T11:23:52;12.77;;;2.80;;
62582;SDS011;48641;51.676;5.808;2023-04-25T11:26:21;13.23;;;2.10;;
62582;SDS011;48641;51.676;5.808;2023-04-25T11:28:48;14.82;;;2.58;;
62582;SDS011;48641;51.676;5.808;2023-04-25T11:31:14;14.32;;;2.30;;
62582;SDS011;48641;51.676;5.808;2023-04-25T11:33:40;12.55;;;2.40;;
62582;SDS011;48641;51.676;5.808;2023-04-25T11:36:06;13.20;;;2.85;;
62582;SDS011;48641;51.676;5.808;2023-04-25T11:38:31;12.80;;;3.13;;
62582;SDS011;48641;51.676;5.808;2023-04-25T11:40:57;13.50;;;2.40;;
62582;SDS011;48641;51.676;5.808;2023-04-25T11:43:23;11.23;;;2.22;;
62582;SDS011;48641;51.676;5.808;2023-04-25T11:45:50;12.50;;;2.60;;
62582;SDS011;48641;51.676;5.808;2023-04-25T11:48:17;13.73;;;2.30;;
62582;SDS011;48641;51.676;5.808;2023-04-25T11:50:43;58.08;;;6.30;;
62582;SDS011;48641;51.676;5.808;2023-04-25T11:53:09;41.90;;;5.78;;
62582;SDS011;48641;51.676;5.808;2023-04-25T11:55:35;36.13;;;5.47;;
62582;SDS011;48641;51.676;5.808;2023-04-25T11:58:01;42.13;;;4.45;;
62582;SDS011;48641;51.676;5.808;2023-04-25T12:00:29;33.72;;;5.38;;
62582;SDS011;48641;51.676;5.808;2023-04-25T12:02:56;36.90;;;5.72;;
62582;SDS011;48641;51.676;5.808;2023-04-25T12:05:26;25.88;;;4.30;;
62582;SDS011;48641;51.676;5.808;2023-04-25T12:07:54;29.77;;;4.47;;
62582;SDS011;48641;51.676;5.808;2023-04-25T12:10:20;27.83;;;3.83;;
62582;SDS011;48641;51.676;5.808;2023-04-25T12:12:46;21.73;;;4.00;;
62582;SDS011;48641;51.676;5.808;2023-04-25T12:15:14;27.50;;;4.10;;
62582;SDS011;48641;51.676;5.808;2023-04-25T12:17:44;25.90;;;4.50;;
62582;SDS011;48641;51.676;5.808;2023-04-25T12:20:15;19.40;;;4.07;;
62582;SDS011;48641;51.676;5.808;2023-04-25T12:22:42;21.13;;;2.85;;
62582;SDS011;48641;51.676;5.808;2023-04-25T12:25:54;17.67;;;3.05;;
62582;SDS011;48641;51.676;5.808;2023-04-25T12:28:17;16.20;;;3.42;;
62582;SDS011;48641;51.676;5.808;2023-04-25T12:33:31;21.27;;;2.90;;
62582;SDS011;48641;51.676;5.808;2023-04-25T12:35:58;14.30;;;2.38;;
62582;SDS011;48641;51.676;5.808;2023-04-25T12:38:26;17.27;;;2.65;;
62582;SDS011;48641;51.676;5.808;2023-04-25T12:40:54;12.32;;;2.60;;
62582;SDS011;48641;51.676;5.808;2023-04-25T12:43:23;17.10;;;3.13;;
62582;SDS011;48641;51.676;5.808;2023-04-25T12:45:49;11.07;;;2.15;;
62582;SDS011;48641;51.676;5.808;2023-04-25T12:48:16;13.48;;;2.22;;
62582;SDS011;48641;51.676;5.808;2023-04-25T12:50:42;18.15;;;2.45;;
62582;SDS011;48641;51.676;5.808;2023-04-25T12:53:08;12.68;;;2.15;;
62582;SDS011;48641;51.676;5.808;2023-04-25T12:55:34;16.02;;;2.33;;
62582;SDS011;48641;51.676;5.808;2023-04-25T12:58:00;12.20;;;1.90;;
62582;SDS011;48641;51.676;5.808;2023-04-25T13:00:25;11.82;;;2.03;;
62582;SDS011;48641;51.676;5.808;2023-04-25T13:02:51;10.10;;;2.10;;
62582;SDS011;48641;51.676;5.808;2023-04-25T13:05:17;8.93;;;1.85;;
62582;SDS011;48641;51.676;5.808;2023-04-25T13:07:43;13.27;;;2.00;;
62582;SDS011;48641;51.676;5.808;2023-04-25T13:10:08;14.23;;;2.00;;
62582;SDS011;48641;51.676;5.808;2023-04-25T13:12:34;12.20;;;1.60;;
62582;SDS011;48641;51.676;5.808;2023-04-25T13:15:00;11.77;;;1.67;;
62582;SDS011;48641;51.676;5.808;2023-04-25T13:17:25;7.00;;;1.42;;
62582;SDS011;48641;51.676;5.808;2023-04-25T13:19:51;9.52;;;1.70;;
62582;SDS011;48641;51.676;5.808;2023-04-25T13:22:16;8.13;;;2.10;;
62582;SDS011;48641;51.676;5.808;2023-04-25T13:24:45;11.73;;;2.10;;
62582;SDS011;48641;51.676;5.808;2023-04-25T13:27:10;8.00;;;1.52;;
62582;SDS011;48641;51.676;5.808;2023-04-25T13:29:36;6.65;;;1.33;;
62582;SDS011;48641;51.676;5.808;2023-04-25T13:32:03;13.02;;;1.45;;
62582;SDS011;48641;51.676;5.808;2023-04-25T13:34:29;7.90;;;1.58;;
62582;SDS011;48641;51.676;5.808;2023-04-25T13:36:55;12.60;;;1.90;;
62582;SDS011;48641;51.676;5.808;2023-04-25T13:39:21;7.05;;;1.42;;
62582;SDS011;48641;51.676;5.808;2023-04-25T13:41:47;10.02;;;1.67;;
62582;SDS011;48641;51.676;5.808;2023-04-25T13:44:12;6.85;;;1.20;;
62582;SDS011;48641;51.676;5.808;2023-04-25T13:46:38;7.03;;;1.33;;
62582;SDS011;48641;51.676;5.808;2023-04-25T13:49:04;7.88;;;1.52;;
62582;SDS011;48641;51.676;5.808;2023-04-25T13:51:30;10.57;;;1.50;;
62582;SDS011;48641;51.676;5.808;2023-04-25T13:53:56;7.93;;;1.67;;
62582;SDS011;48641;51.676;5.808;2023-04-25T13:56:22;11.52;;;1.63;;
62582;SDS011;48641;51.676;5.808;2023-04-25T13:58:48;7.28;;;1.50;;
62582;SDS011;48641;51.676;5.808;2023-04-25T14:01:17;7.68;;;1.40;;
62582;SDS011;48641;51.676;5.808;2023-04-25T14:03:44;6.93;;;1.30;;
62582;SDS011;48641;51.676;5.808;2023-04-25T14:06:10;4.65;;;1.50;;
62582;SDS011;48641;51.676;5.808;2023-04-25T14:08:37;6.22;;;1.85;;
62582;SDS011;48641;51.676;5.808;2023-04-25T14:11:03;4.50;;;1.08;;
62582;SDS011;48641;51.676;5.808;2023-04-25T14:13:28;5.80;;;1.40;;
62582;SDS011;48641;51.676;5.808;2023-04-25T14:15:54;5.55;;;1.40;;
62582;SDS011;48641;51.676;5.808;2023-04-25T14:18:20;7.90;;;1.42;;
62582;SDS011;48641;51.676;5.808;2023-04-25T14:20:46;7.25;;;1.30;;
62582;SDS011;48641;51.676;5.808;2023-04-25T14:23:11;5.00;;;1.10;;
62582;SDS011;48641;51.676;5.808;2023-04-25T14:25:37;4.32;;;1.27;;
62582;SDS011;48641;51.676;5.808;2023-04-25T14:28:02;5.30;;;1.40;;
62582;SDS011;48641;51.676;5.808;2023-04-25T14:30:28;3.90;;;1.17;;
62582;SDS011;48641;51.676;5.808;2023-04-25T14:32:54;6.20;;;1.35;;
62582;SDS011;48641;51.676;5.808;2023-04-25T14:35:20;7.40;;;1.40;;
62582;SDS011;48641;51.676;5.808;2023-04-25T14:37:46;4.85;;;1.10;;
62582;SDS011;48641;51.676;5.808;2023-04-25T14:40:12;6.22;;;1.50;;
62582;SDS011;48641;51.676;5.808;2023-04-25T14:42:40;4.53;;;1.20;;
62582;SDS011;48641;51.676;5.808;2023-04-25T14:45:06;6.18;;;1.60;;
62582;SDS011;48641;51.676;5.808;2023-04-25T14:47:33;3.20;;;1.25;;
62582;SDS011;48641;51.676;5.808;2023-04-25T14:50:00;5.05;;;1.40;;
62582;SDS011;48641;51.676;5.808;2023-04-25T14:52:26;3.97;;;1.48;;